Time;durP1;ratioP1;P1;durP2;ratioP2;P2;SDS_P1;SDS_P2;PMS_P1;PMS_P2;Temp;Humidity;BMP_temperature;BMP_pressure;BME280_temperature;BME280_humidity;BME280_pressure;Samples;Min_cycle;Max_cycle;Signal;HPM_P1;HPM_P2
2021/08/02 00:01:18;;;;;;;7.28;3.08;;;24.50;57.80;;;;;;6243290;28;20461;-71
2021/08/02 00:04:24;;;;;;;5.57;2.78;;;24.50;57.80;;;;;;6243534;28;20040;-71
2021/08/02 00:07:27;;;;;;;4.38;2.30;;;24.50;57.80;;;;;;6244437;28;20033;-71
2021/08/02 00:10:31;;;;;;;4.38;2.28;;;24.50;57.80;;;;;;6244291;28;20033;-71
2021/08/02 00:13:34;;;;;;;5.82;2.70;;;24.50;57.80;;;;;;6237994;28;20066;-71
2021/08/02 00:16:37;;;;;;;6.40;2.45;;;24.50;57.80;;;;;;6228610;28;20025;-71
2021/08/02 00:19:38;;;;;;;4.72;2.42;;;24.50;57.80;;;;;;6244017;28;20492;-71
2021/08/02 00:22:38;;;;;;;6.22;2.75;;;24.50;57.80;;;;;;6244178;28;20030;-72
2021/08/02 00:25:39;;;;;;;4.25;2.13;;;24.50;57.80;;;;;;6243764;28;20036;-71
2021/08/02 00:28:40;;;;;;;4.72;2.40;;;24.50;57.80;;;;;;6243883;28;20075;-71
2021/08/02 00:31:41;;;;;;;5.63;2.95;;;24.50;57.80;;;;;;6243491;28;20546;-71
2021/08/02 00:34:42;;;;;;;5.55;2.40;;;24.50;57.80;;;;;;6243667;28;20029;-71
2021/08/02 00:37:51;;;;;;;4.20;2.22;;;24.50;57.80;;;;;;6243767;28;20025;-71
2021/08/02 00:41:18;;;;;;;4.18;2.22;;;24.50;57.80;;;;;;6243202;28;20429;-71
2021/08/02 00:44:37;;;;;;;3.42;2.10;;;24.50;57.80;;;;;;6243204;28;20047;-71
2021/08/02 00:47:45;;;;;;;3.47;1.95;;;24.50;57.80;;;;;;6243832;28;20028;-71
2021/08/02 00:50:49;;;;;;;3.92;2.20;;;24.50;57.90;;;;;;6243660;28;20025;-70
2021/08/02 00:53:52;;;;;;;4.55;2.03;;;24.50;57.80;;;;;;6243485;28;20026;-71
2021/08/02 00:56:58;;;;;;;6.25;2.53;;;24.50;57.80;;;;;;6242996;28;20119;-71
2021/08/02 01:00:04;;;;;;;3.78;1.90;;;24.50;57.80;;;;;;6241755;28;20025;-71
2021/08/02 01:03:08;;;;;;;3.20;1.90;;;24.50;57.90;;;;;;6242615;28;20629;-71
2021/08/02 01:06:10;;;;;;;3.33;1.92;;;24.50;57.80;;;;;;6242452;28;20124;-71
2021/08/02 01:09:14;;;;;;;2.78;1.70;;;24.50;57.90;;;;;;6242859;28;20444;-71
2021/08/02 01:12:15;;;;;;;3.28;1.65;;;24.50;57.80;;;;;;6243050;28;20032;-72
2021/08/02 01:15:17;;;;;;;3.30;1.70;;;24.50;57.80;;;;;;6241467;28;20038;-71
2021/08/02 01:18:19;;;;;;;3.72;1.90;;;24.50;57.90;;;;;;6242418;28;20034;-72
2021/08/02 01:21:20;;;;;;;3.42;1.90;;;24.50;57.80;;;;;;6242506;28;20512;-72
2021/08/02 01:24:21;;;;;;;4.13;1.83;;;24.50;57.80;;;;;;6242260;28;20038;-72
2021/08/02 01:27:37;;;;;;;2.97;1.58;;;24.50;57.80;;;;;;6241208;28;20057;-72
2021/08/02 01:30:37;;;;;;;2.55;1.50;;;24.50;57.80;;;;;;6242559;28;20029;-72
2021/08/02 01:33:38;;;;;;;2.03;1.23;;;24.50;57.90;;;;;;6242480;28;20686;-72
2021/08/02 01:36:39;;;;;;;2.88;1.50;;;24.50;57.90;;;;;;6242305;28;20048;-71
2021/08/02 01:39:45;;;;;;;3.40;1.60;;;24.50;57.90;;;;;;6241991;28;20028;-72
2021/08/02 01:42:46;;;;;;;3.58;1.75;;;24.50;57.80;;;;;;6241930;28;20148;-72
2021/08/02 01:46:09;;;;;;;3.70;1.60;;;24.50;57.90;;;;;;6241668;28;20112;-72
2021/08/02 01:49:31;;;;;;;3.13;1.73;;;24.50;57.90;;;;;;6241963;28;20048;-72
2021/08/02 01:52:40;;;;;;;2.83;1.58;;;24.50;57.90;;;;;;6241607;28;20049;-71
2021/08/02 01:55:47;;;;;;;2.85;1.73;;;24.50;57.90;;;;;;6241118;28;20131;-72
2021/08/02 01:59:05;;;;;;;2.72;1.30;;;24.50;57.90;;;;;;6241967;28;20033;-72
2021/08/02 02:02:11;;;;;;;2.38;1.23;;;24.50;57.90;;;;;;6241197;28;20029;-71
2021/08/02 02:05:20;;;;;;;3.40;1.60;;;24.50;57.90;;;;;;6241741;28;20087;-72
2021/08/02 02:08:44;;;;;;;3.05;1.60;;;24.50;57.90;;;;;;6242648;28;20040;-72
2021/08/02 02:11:47;;;;;;;1.50;1.15;;;24.50;57.90;;;;;;6241377;28;20025;-72
2021/08/02 02:14:52;;;;;;;2.05;1.17;;;24.50;57.90;;;;;;6224895;28;20026;-72
2021/08/02 02:17:53;;;;;;;3.05;1.58;;;24.50;57.90;;;;;;6238920;28;20237;-72
2021/08/02 02:20:54;;;;;;;1.80;1.20;;;24.50;57.90;;;;;;6241397;28;20022;-72
2021/08/02 02:23:56;;;;;;;2.20;1.40;;;24.50;57.90;;;;;;6241337;28;20029;-71
2021/08/02 02:26:58;;;;;;;2.85;1.52;;;24.50;57.90;;;;;;6241098;28;20420;-72
2021/08/02 02:30:01;;;;;;;2.63;1.33;;;24.50;57.90;;;;;;6241700;28;20380;-72
2021/08/02 02:33:03;;;;;;;2.42;1.20;;;24.50;57.90;;;;;;6240900;28;20085;-71
2021/08/02 02:36:05;;;;;;;2.30;1.17;;;24.50;57.90;;;;;;6240879;28;20108;-71
2021/08/02 02:39:06;;;;;;;2.55;1.23;;;24.50;57.90;;;;;;6241355;28;20074;-72
2021/08/02 02:42:08;;;;;;;1.85;1.10;;;24.50;57.90;;;;;;6240354;28;20087;-72
2021/08/02 02:45:09;;;;;;;1.63;1.00;;;24.50;57.90;;;;;;6241200;28;20088;-72
2021/08/02 02:48:12;;;;;;;1.75;1.05;;;24.50;57.90;;;;;;6240486;28;20029;-72
2021/08/02 02:51:13;;;;;;;2.42;1.35;;;24.50;57.90;;;;;;6240970;28;20033;-72
2021/08/02 02:54:16;;;;;;;1.05;0.90;;;24.50;57.90;;;;;;6240545;28;20212;-72
2021/08/02 02:57:17;;;;;;;2.42;1.20;;;24.50;57.90;;;;;;6240507;28;20406;-72
2021/08/02 03:00:19;;;;;;;2.00;1.10;;;24.50;57.90;;;;;;6240978;28;20029;-72
2021/08/02 03:03:23;;;;;;;1.63;1.00;;;24.50;57.90;;;;;;6240528;28;20030;-72
2021/08/02 03:06:27;;;;;;;3.70;1.42;;;24.50;57.90;;;;;;6240108;28;20037;-72
2021/08/02 03:09:35;;;;;;;1.13;0.88;;;24.50;57.90;;;;;;6240720;28;20090;-72
2021/08/02 03:12:35;;;;;;;2.17;1.00;;;24.50;57.90;;;;;;6240528;28;20017;-72
2021/08/02 03:15:37;;;;;;;1.52;1.10;;;24.50;57.90;;;;;;6217506;28;20493;-71
2021/08/02 03:18:38;;;;;;;2.00;0.80;;;24.50;57.90;;;;;;6235206;28;20032;-72
2021/08/02 03:21:38;;;;;;;1.60;0.82;;;24.50;57.90;;;;;;6240470;28;20025;-72
2021/08/02 03:24:46;;;;;;;1.67;0.85;;;24.50;57.90;;;;;;6244857;28;20037;-72
2021/08/02 03:28:13;;;;;;;1.58;0.95;;;24.50;57.90;;;;;;6245030;28;20377;-71
2021/08/02 03:31:20;;;;;;;1.63;0.80;;;24.50;57.90;;;;;;6244112;28;20492;-72
2021/08/02 03:34:30;;;;;;;1.40;0.90;;;24.50;57.90;;;;;;6245045;28;20444;-71
2021/08/02 03:37:31;;;;;;;1.50;0.95;;;24.50;57.90;;;;;;6245024;28;20423;-72
2021/08/02 03:40:32;;;;;;;1.30;1.00;;;24.50;58.00;;;;;;6245258;28;20380;-72
2021/08/02 03:43:39;;;;;;;1.90;1.10;;;24.50;57.90;;;;;;6245152;28;20041;-72
2021/08/02 03:46:42;;;;;;;1.13;0.73;;;24.50;58.00;;;;;;6243254;28;20037;-72
2021/08/02 03:49:42;;;;;;;1.55;0.80;;;24.50;58.00;;;;;;6244581;28;20037;-72
2021/08/02 03:52:46;;;;;;;0.98;0.82;;;24.50;57.90;;;;;;6244208;28;20076;-72
2021/08/02 03:55:47;;;;;;;1.25;0.95;;;24.50;57.90;;;;;;6244426;28;20061;-72
2021/08/02 03:58:47;;;;;;;2.25;1.02;;;24.50;58.00;;;;;;6244088;28;20041;-71
2021/08/02 04:01:48;;;;;;;1.13;0.90;;;24.50;57.90;;;;;;6244325;28;20033;-72
2021/08/02 04:04:48;;;;;;;1.00;0.75;;;24.50;57.90;;;;;;6244413;28;20538;-72
2021/08/02 04:07:49;;;;;;;1.17;0.80;;;24.50;58.00;;;;;;6244535;28;20026;-71
2021/08/02 04:10:49;;;;;;;0.60;0.55;;;24.50;57.90;;;;;;6244538;28;20109;-72
2021/08/02 04:13:50;;;;;;;1.42;0.90;;;24.50;58.00;;;;;;6235919;28;20181;-71
2021/08/02 04:16:50;;;;;;;1.15;0.90;;;24.50;57.90;;;;;;6219785;28;20329;-72
2021/08/02 04:19:51;;;;;;;1.15;0.73;;;24.50;58.00;;;;;;6239566;28;20080;-72
2021/08/02 04:22:51;;;;;;;0.85;0.70;;;24.50;58.00;;;;;;6243923;28;20026;-71
2021/08/02 04:25:52;;;;;;;0.77;0.57;;;24.40;57.90;;;;;;6243953;28;20037;-73
2021/08/02 04:28:56;;;;;;;1.30;0.82;;;24.50;57.90;;;;;;6243767;28;20484;-72
2021/08/02 04:31:57;;;;;;;1.20;0.63;;;24.50;57.90;;;;;;6243787;28;20034;-71
2021/08/02 04:34:57;;;;;;;1.15;0.80;;;24.50;57.90;;;;;;6243227;28;20037;-72
2021/08/02 04:37:58;;;;;;;1.23;0.80;;;24.50;57.90;;;;;;6244228;28;20052;-72
2021/08/02 04:40:58;;;;;;;0.82;0.70;;;24.50;58.00;;;;;;6223520;28;20100;-72
2021/08/02 04:43:59;;;;;;;1.85;0.75;;;24.50;58.00;;;;;;6235625;28;20022;-72
2021/08/02 04:46:59;;;;;;;1.20;0.70;;;24.50;57.80;;;;;;6240505;28;20485;-72
2021/08/02 04:50:00;;;;;;;1.00;0.70;;;24.50;57.80;;;;;;6242049;28;20025;-72
2021/08/02 04:53:00;;;;;;;1.73;0.85;;;24.50;57.80;;;;;;6241484;28;20108;-72
2021/08/02 04:56:01;;;;;;;1.85;0.80;;;24.50;57.80;;;;;;6241943;28;20055;-72
2021/08/02 04:59:01;;;;;;;1.20;0.70;;;24.50;57.80;;;;;;6238281;28;20477;-72
2021/08/02 05:02:02;;;;;;;1.30;0.73;;;24.50;58.60;;;;;;6228396;28;20294;-72
2021/08/02 05:05:03;;;;;;;1.65;0.80;;;24.50;57.90;;;;;;6243075;28;20042;-71
2021/08/02 05:08:04;;;;;;;0.90;0.70;;;24.50;57.90;;;;;;6243431;28;20372;-71
2021/08/02 05:11:05;;;;;;;1.08;0.70;;;24.50;57.90;;;;;;6242540;28;20037;-72
2021/08/02 05:14:05;;;;;;;0.82;0.70;;;24.50;57.90;;;;;;6235551;28;20022;-72
2021/08/02 05:17:07;;;;;;;1.58;0.80;;;24.50;57.90;;;;;;6241769;28;20026;-71
2021/08/02 05:20:08;;;;;;;1.33;0.80;;;24.50;57.90;;;;;;6242479;28;20395;-71
2021/08/02 05:23:09;;;;;;;1.10;0.68;;;24.50;57.90;;;;;;6242658;28;20030;-71
2021/08/02 05:26:09;;;;;;;1.15;0.68;;;24.50;58.00;;;;;;6242925;28;20029;-72
2021/08/02 05:29:10;;;;;;;1.25;0.65;;;24.50;57.90;;;;;;6243087;28;20032;-72
2021/08/02 05:32:10;;;;;;;2.75;0.90;;;24.50;58.60;;;;;;6242749;28;20496;-72
2021/08/02 05:35:12;;;;;;;0.90;0.60;;;24.50;57.90;;;;;;6242294;28;20033;-72
2021/08/02 05:38:12;;;;;;;0.73;0.63;;;24.50;57.90;;;;;;6242714;28;20037;-72
2021/08/02 05:41:13;;;;;;;1.30;0.90;;;24.50;57.90;;;;;;6242398;28;20109;-71
2021/08/02 05:44:13;;;;;;;0.88;0.65;;;24.50;57.90;;;;;;6242215;28;20061;-72
2021/08/02 05:47:14;;;;;;;0.93;0.70;;;24.50;57.90;;;;;;6241910;28;20354;-72
2021/08/02 05:50:14;;;;;;;1.00;0.68;;;24.50;57.90;;;;;;6241991;28;20028;-72
2021/08/02 05:53:15;;;;;;;0.98;0.75;;;24.50;57.90;;;;;;6241537;28;20033;-72
2021/08/02 05:56:16;;;;;;;0.85;0.80;;;24.50;57.90;;;;;;6241902;28;20136;-71
2021/08/02 05:59:16;;;;;;;1.10;0.70;;;24.50;57.90;;;;;;6239716;28;20021;-71
2021/08/02 06:02:17;;;;;;;1.42;0.80;;;24.50;57.90;;;;;;6232334;28;20405;-71
2021/08/02 06:05:18;;;;;;;0.63;0.60;;;24.50;57.90;;;;;;6237994;28;20120;-72
2021/08/02 06:08:18;;;;;;;0.95;0.60;;;24.50;57.90;;;;;;6244171;28;20447;-72
2021/08/02 06:11:19;;;;;;;0.70;0.52;;;24.50;57.90;;;;;;6244614;28;20113;-72
2021/08/02 06:14:19;;;;;;;0.70;0.60;;;24.50;57.90;;;;;;6231702;28;20465;-72
2021/08/02 06:17:20;;;;;;;1.42;0.68;;;24.50;57.80;;;;;;6238321;28;20044;-71
2021/08/02 06:20:20;;;;;;;0.80;0.60;;;24.50;57.80;;;;;;6244315;28;20065;-72
2021/08/02 06:23:21;;;;;;;0.73;0.50;;;24.50;57.80;;;;;;6242835;28;20025;-71
2021/08/02 06:26:21;;;;;;;1.25;0.70;;;24.50;57.80;;;;;;6243685;28;20104;-72
2021/08/02 06:29:22;;;;;;;0.90;0.70;;;24.50;57.80;;;;;;6244096;28;20021;-71
2021/08/02 06:32:22;;;;;;;0.85;0.60;;;24.50;57.80;;;;;;6243530;28;20101;-72
2021/08/02 06:35:23;;;;;;;0.60;0.60;;;24.50;57.80;;;;;;6244372;28;20503;-71
2021/08/02 06:38:24;;;;;;;1.85;0.82;;;24.50;57.80;;;;;;6243628;28;20096;-71
2021/08/02 06:41:24;;;;;;;0.60;0.50;;;24.50;57.80;;;;;;6243536;28;20176;-71
2021/08/02 06:44:25;;;;;;;1.10;0.40;;;24.50;57.80;;;;;;6243752;28;20087;-71
2021/08/02 06:47:25;;;;;;;1.30;0.55;;;24.50;57.80;;;;;;6243848;28;20025;-72
2021/08/02 06:50:26;;;;;;;0.57;0.52;;;24.50;57.80;;;;;;6243569;28;20032;-71
2021/08/02 06:53:26;;;;;;;0.85;0.45;;;24.50;57.80;;;;;;6243479;28;20509;-71
2021/08/02 06:56:27;;;;;;;0.63;0.52;;;24.50;57.80;;;;;;6244092;28;20057;-72
2021/08/02 06:59:27;;;;;;;0.45;0.45;;;24.50;57.80;;;;;;6248899;28;20044;-72
2021/08/02 07:02:28;;;;;;;0.77;0.60;;;24.50;57.80;;;;;;6248638;28;20472;-71
2021/08/02 07:05:28;;;;;;;0.70;0.50;;;24.50;57.80;;;;;;6248530;28;20207;-72
2021/08/02 07:08:29;;;;;;;1.10;0.60;;;24.50;57.80;;;;;;6248769;28;20045;-71
2021/08/02 07:11:29;;;;;;;0.50;0.40;;;24.50;57.80;;;;;;6248778;28;20072;-71
2021/08/02 07:14:30;;;;;;;0.77;0.60;;;24.50;57.80;;;;;;6234112;28;20054;-71
2021/08/02 07:17:30;;;;;;;0.60;0.50;;;24.50;57.80;;;;;;6231571;28;20527;-71
2021/08/02 07:20:31;;;;;;;0.60;0.50;;;24.50;57.70;;;;;;6248212;28;20283;-72
2021/08/02 07:23:31;;;;;;;0.70;0.43;;;24.50;57.70;;;;;;6248112;28;20056;-71
2021/08/02 07:26:32;;;;;;;0.50;0.50;;;24.50;57.70;;;;;;6248328;28;20091;-72
2021/08/02 07:29:33;;;;;;;0.50;0.50;;;24.50;57.80;;;;;;6247738;28;20487;-71
2021/08/02 07:32:33;;;;;;;0.65;0.50;;;24.50;57.70;;;;;;6247501;28;20439;-72
2021/08/02 07:35:34;;;;;;;1.13;0.65;;;24.50;57.80;;;;;;6247654;28;20369;-71
2021/08/02 07:38:36;;;;;;;0.73;0.40;;;24.50;57.70;;;;;;6247290;28;20344;-72
2021/08/02 07:41:36;;;;;;;0.32;0.30;;;24.50;57.70;;;;;;6247562;28;20109;-71
2021/08/02 07:44:37;;;;;;;0.88;0.50;;;24.50;57.70;;;;;;6247100;28;20246;-72
2021/08/02 07:47:38;;;;;;;0.50;0.50;;;24.50;57.70;;;;;;6247609;28;20033;-72
2021/08/02 07:50:38;;;;;;;0.80;0.60;;;24.50;57.70;;;;;;6247662;28;20030;-72
2021/08/02 07:53:39;;;;;;;3.25;0.60;;;24.50;57.70;;;;;;6247654;28;20373;-71
2021/08/02 07:56:39;;;;;;;1.25;0.50;;;24.50;57.70;;;;;;6247344;28;20080;-71
2021/08/02 07:59:40;;;;;;;0.75;0.50;;;24.50;57.70;;;;;;6247375;28;20038;-72
2021/08/02 08:02:40;;;;;;;0.65;0.40;;;24.50;57.70;;;;;;6247184;28;20026;-71
2021/08/02 08:05:41;;;;;;;0.60;0.50;;;24.50;57.70;;;;;;6247572;28;20504;-72
2021/08/02 08:08:42;;;;;;;0.90;0.50;;;24.50;57.70;;;;;;6246108;28;20268;-72
2021/08/02 08:11:42;;;;;;;0.75;0.50;;;24.50;57.70;;;;;;6247305;28;20096;-72
2021/08/02 08:14:43;;;;;;;0.50;0.40;;;24.50;57.70;;;;;;6230823;28;20044;-72
2021/08/02 08:17:44;;;;;;;1.17;0.60;;;24.50;57.70;;;;;;6224852;28;20033;-72
2021/08/02 08:20:45;;;;;;;0.30;0.30;;;24.50;57.70;;;;;;6247196;28;20106;-71
2021/08/02 08:23:45;;;;;;;0.40;0.40;;;24.50;57.70;;;;;;6246550;28;20046;-71
2021/08/02 08:26:46;;;;;;;0.55;0.40;;;24.50;57.70;;;;;;6246845;28;20044;-72
2021/08/02 08:29:46;;;;;;;0.80;0.50;;;24.50;57.70;;;;;;6247097;28;20441;-72
2021/08/02 08:32:47;;;;;;;2.25;0.32;;;24.50;57.70;;;;;;6246281;28;20480;-72
2021/08/02 08:35:49;;;;;;;1.55;0.50;;;24.50;57.70;;;;;;6246610;28;20056;-71
2021/08/02 08:38:50;;;;;;;0.68;0.40;;;24.50;57.70;;;;;;6246063;28;20032;-72
2021/08/02 08:41:51;;;;;;;0.50;0.40;;;24.50;57.60;;;;;;6246145;28;20484;-71
2021/08/02 08:44:52;;;;;;;0.73;0.45;;;24.50;57.70;;;;;;6245598;28;20045;-72
2021/08/02 08:47:53;;;;;;;0.40;0.40;;;24.50;57.60;;;;;;6244526;28;20503;-71
2021/08/02 08:50:55;;;;;;;0.40;0.30;;;24.50;58.30;;;;;;6246061;28;20033;-72
2021/08/02 08:53:56;;;;;;;0.77;0.50;;;24.50;57.60;;;;;;6245832;28;20101;-72
2021/08/02 08:56:57;;;;;;;0.55;0.35;;;24.50;57.60;;;;;;6246101;28;20050;-71
2021/08/02 08:59:57;;;;;;;0.30;0.22;;;24.50;57.60;;;;;;6246091;28;20387;-72
2021/08/02 09:03:09;;;;;;;0.77;0.50;;;24.50;57.70;;;;;;6245969;28;20037;-71
2021/08/02 09:06:09;;;;;;;0.43;0.40;;;24.50;57.60;;;;;;6245553;28;20037;-71
2021/08/02 09:09:10;;;;;;;0.73;0.50;;;24.50;57.60;;;;;;6245801;28;20063;-72
2021/08/02 09:12:19;;;;;;;0.55;0.50;;;24.50;58.30;;;;;;6245496;28;20387;-72
2021/08/02 09:15:41;;;;;;;0.60;0.35;;;24.50;57.60;;;;;;6236561;28;20484;-72
2021/08/02 09:19:03;;;;;;;0.63;0.40;;;24.50;57.60;;;;;;6246204;28;20026;-71
2021/08/02 09:22:04;;;;;;;0.75;0.47;;;24.50;57.60;;;;;;6220870;28;20377;-72
2021/08/02 09:25:10;;;;;;;0.52;0.40;;;24.50;57.60;;;;;;6244315;28;20045;-72
2021/08/02 09:28:14;;;;;;;0.65;0.40;;;24.50;57.60;;;;;;6246643;28;20392;-72
2021/08/02 09:31:16;;;;;;;0.47;0.47;;;24.50;57.60;;;;;;6245338;28;20096;-71
2021/08/02 09:34:16;;;;;;;0.50;0.40;;;24.50;57.60;;;;;;6245537;28;20057;-71
2021/08/02 09:37:23;;;;;;;0.40;0.40;;;24.50;57.60;;;;;;6245350;28;20384;-71
2021/08/02 09:40:24;;;;;;;0.57;0.30;;;24.50;57.60;;;;;;6244986;28;20024;-72
2021/08/02 09:43:26;;;;;;;0.63;0.40;;;24.50;57.60;;;;;;6244847;28;20025;-72
2021/08/02 09:46:27;;;;;;;0.70;0.38;;;24.50;57.60;;;;;;6244731;28;20099;-71
2021/08/02 09:49:45;;;;;;;0.40;0.40;;;24.50;57.60;;;;;;6244819;28;20026;-71
2021/08/02 09:52:52;;;;;;;0.40;0.40;;;24.50;57.60;;;;;;6220374;28;20388;-71
2021/08/02 09:55:53;;;;;;;0.32;0.32;;;24.50;57.60;;;;;;6230846;28;20092;-72
2021/08/02 09:58:53;;;;;;;1.63;0.43;;;24.50;57.50;;;;;;6244426;28;20026;-72
2021/08/02 10:01:54;;;;;;;0.47;0.47;;;24.50;57.60;;;;;;6244383;28;20029;-71
2021/08/02 10:04:56;;;;;;;0.38;0.30;;;24.50;57.50;;;;;;6244196;28;20095;-71
2021/08/02 10:07:57;;;;;;;0.35;0.30;;;24.50;57.50;;;;;;6244715;28;20030;-72
2021/08/02 10:10:57;;;;;;;0.30;0.30;;;24.50;57.50;;;;;;6244681;28;20052;-71
2021/08/02 10:13:58;;;;;;;0.47;0.30;;;24.50;57.50;;;;;;6234662;28;20066;-72
2021/08/02 10:17:07;;;;;;;0.50;0.30;;;24.50;57.50;;;;;;6236710;28;20429;-72
2021/08/02 10:20:22;;;;;;;0.40;0.22;;;24.50;57.60;;;;;;6225487;28;20110;-72
2021/08/02 10:23:24;;;;;;;0.40;0.30;;;24.50;57.50;;;;;;6240642;28;20024;-73
2021/08/02 10:26:28;;;;;;;1.38;0.50;;;24.50;57.50;;;;;;6239928;28;20029;-72
2021/08/02 10:29:41;;;;;;;1.20;0.60;;;24.50;57.20;;;;;;6242385;28;20033;-72
2021/08/02 10:32:54;;;;;;;8.88;0.68;;;24.50;57.00;;;;;;6241347;28;20551;-72
2021/08/02 10:35:55;;;;;;;7.47;1.10;;;24.50;55.90;;;;;;6241799;28;20021;-72
2021/08/02 10:38:55;;;;;;;4.13;1.13;;;24.50;55.50;;;;;;6242821;28;20026;-71
2021/08/02 10:42:08;;;;;;;4.00;1.00;;;24.50;55.00;;;;;;6242465;28;20029;-71
2021/08/02 10:45:09;;;;;;;1.65;0.98;;;24.50;55.30;;;;;;6243290;28;20401;-72
2021/08/02 10:48:21;;;;;;;1.30;0.60;;;24.50;55.20;;;;;;6242339;28;20033;-71
2021/08/02 10:51:23;;;;;;;7.68;1.17;;;24.50;55.70;;;;;;6242118;28;20512;-72
2021/08/02 10:54:36;;;;;;;0.80;0.52;;;24.50;55.80;;;;;;6233412;28;20038;-72
2021/08/02 10:57:36;;;;;;;1.50;0.70;;;24.50;56.10;;;;;;6235869;28;20104;-72
2021/08/02 11:00:37;;;;;;;2.88;0.77;;;24.50;56.30;;;;;;6242533;28;20029;-72
2021/08/02 11:03:41;;;;;;;1.60;0.70;;;24.50;56.40;;;;;;6242093;28;20037;-71
2021/08/02 11:06:41;;;;;;;2.80;0.77;;;24.50;56.50;;;;;;6243086;28;20044;-72
2021/08/02 11:09:45;;;;;;;0.80;0.63;;;24.50;56.50;;;;;;6241165;28;20021;-71
2021/08/02 11:12:47;;;;;;;1.38;0.82;;;24.50;56.60;;;;;;6241972;28;20067;-72
2021/08/02 11:15:47;;;;;;;0.95;0.45;;;24.50;56.60;;;;;;6217784;28;20030;-71
2021/08/02 11:18:48;;;;;;;1.52;0.73;;;24.50;56.70;;;;;;6241703;28;20040;-73
2021/08/02 11:21:58;;;;;;;0.68;0.50;;;24.50;56.70;;;;;;6241330;28;20040;-72
2021/08/02 11:25:00;;;;;;;0.90;0.70;;;24.50;56.80;;;;;;6242007;28;20496;-72
2021/08/02 11:28:00;;;;;;;1.30;0.80;;;24.50;56.70;;;;;;6241777;28;20060;-72
2021/08/02 11:31:01;;;;;;;0.90;0.50;;;24.50;56.80;;;;;;6241711;28;20427;-72
2021/08/02 11:34:02;;;;;;;1.25;0.68;;;24.50;56.80;;;;;;6241940;28;20061;-72
2021/08/02 11:37:20;;;;;;;1.38;0.60;;;24.50;56.80;;;;;;6241230;28;20029;-72
2021/08/02 11:40:20;;;;;;;0.95;0.50;;;24.50;56.80;;;;;;6242031;28;20044;-72
2021/08/02 11:43:21;;;;;;;1.35;0.60;;;24.50;56.80;;;;;;6241238;28;20097;-72
2021/08/02 11:46:21;;;;;;;0.93;0.50;;;24.50;56.80;;;;;;6246759;28;20053;-72
2021/08/02 11:49:23;;;;;;;1.60;0.50;;;24.50;56.80;;;;;;6246656;28;20459;-71
2021/08/02 11:52:26;;;;;;;1.25;0.60;;;24.50;56.80;;;;;;6246488;28;20032;-72
2021/08/02 11:55:26;;;;;;;1.02;0.60;;;24.50;56.80;;;;;;6246177;28;20339;-72
2021/08/02 11:58:45;;;;;;;1.27;0.65;;;24.50;56.80;;;;;;6245586;28;20403;-72
2021/08/02 12:01:51;;;;;;;0.88;0.55;;;24.50;56.80;;;;;;6245200;28;20067;-72
2021/08/02 12:04:51;;;;;;;1.05;0.55;;;24.50;56.80;;;;;;6245913;28;20033;-72
2021/08/02 12:07:53;;;;;;;0.85;0.45;;;24.50;57.50;;;;;;6244824;28;20489;-72
2021/08/02 12:10:59;;;;;;;0.85;0.50;;;24.50;56.80;;;;;;6246015;28;20035;-72
2021/08/02 12:14:00;;;;;;;1.35;0.60;;;24.50;56.80;;;;;;6239678;28;20025;-72
2021/08/02 12:17:07;;;;;;;0.50;0.40;;;24.50;56.80;;;;;;6245666;28;20017;-71
2021/08/02 12:20:08;;;;;;;0.60;0.47;;;24.50;56.90;;;;;;6245317;28;20029;-72
2021/08/02 12:23:20;;;;;;;0.60;0.40;;;24.50;56.90;;;;;;6244796;28;20062;-72
2021/08/02 12:26:23;;;;;;;0.52;0.43;;;24.50;56.90;;;;;;6244385;28;20120;-72
2021/08/02 12:29:26;;;;;;;1.70;0.63;;;24.50;56.90;;;;;;6244906;28;20021;-72
2021/08/02 12:32:36;;;;;;;1.25;0.57;;;24.50;56.90;;;;;;6244700;28;20033;-72
2021/08/02 12:35:38;;;;;;;0.50;0.50;;;24.50;56.90;;;;;;6245316;28;20052;-72
2021/08/02 12:38:47;;;;;;;1.58;0.60;;;24.50;56.90;;;;;;6245021;28;20033;-72
2021/08/02 12:41:47;;;;;;;0.50;0.40;;;24.50;56.90;;;;;;6245101;28;20057;-72
2021/08/02 12:44:48;;;;;;;1.10;0.63;;;24.50;56.90;;;;;;6245053;28;20487;-72
2021/08/02 12:47:50;;;;;;;1.08;0.60;;;24.50;56.90;;;;;;6244740;28;20040;-72
2021/08/02 12:50:51;;;;;;;1.63;0.60;;;24.50;56.90;;;;;;6244667;28;20384;-72
2021/08/02 12:53:52;;;;;;;0.85;0.60;;;24.50;56.90;;;;;;6244830;28;20033;-72
2021/08/02 12:56:52;;;;;;;0.88;0.50;;;24.50;57.00;;;;;;6244727;28;20080;-72
2021/08/02 12:59:57;;;;;;;1.08;0.50;;;24.50;56.90;;;;;;6244812;28;20029;-71
2021/08/02 13:02:58;;;;;;;0.65;0.60;;;24.50;57.00;;;;;;6243866;28;20036;-72
2021/08/02 13:05:58;;;;;;;0.70;0.55;;;24.50;57.00;;;;;;6244115;28;20041;-72
2021/08/02 13:08:59;;;;;;;0.50;0.50;;;24.50;57.60;;;;;;6244016;28;20037;-72
2021/08/02 13:11:59;;;;;;;0.70;0.70;;;24.50;57.00;;;;;;6244469;28;20049;-72
2021/08/02 13:15:00;;;;;;;1.13;0.55;;;24.50;57.00;;;;;;6237413;28;20033;-71
2021/08/02 13:18:00;;;;;;;0.75;0.50;;;24.50;57.00;;;;;;6244776;28;20068;-72
2021/08/02 13:21:01;;;;;;;0.93;0.47;;;24.50;57.00;;;;;;6243580;28;20025;-72
2021/08/02 13:27:21;;;;;;;0.63;0.50;;;24.50;57.00;;;;;;6243905;28;20041;-72
2021/08/02 13:30:22;;;;;;;0.63;0.40;;;24.50;57.00;;;;;;6243791;28;20079;-73
2021/08/02 13:33:23;;;;;;;0.50;0.50;;;24.50;57.00;;;;;;6244080;28;20480;-71
2021/08/02 13:36:23;;;;;;;1.58;0.80;;;24.50;57.00;;;;;;6242983;28;20026;-72
2021/08/02 13:39:24;;;;;;;0.75;0.70;;;24.50;57.00;;;;;;6243304;28;20029;-72
2021/08/02 13:42:25;;;;;;;0.68;0.45;;;24.50;57.00;;;;;;6243645;28;20229;-72
2021/08/02 13:45:27;;;;;;;0.88;0.57;;;24.50;57.00;;;;;;6243249;28;20049;-71
2021/08/02 13:48:28;;;;;;;0.50;0.50;;;24.50;57.00;;;;;;6243635;28;20029;-71
2021/08/02 13:51:28;;;;;;;0.60;0.60;;;24.50;57.00;;;;;;6243140;28;20049;-72
2021/08/02 13:54:29;;;;;;;0.65;0.50;;;24.50;57.00;;;;;;6241740;28;20021;-72
2021/08/02 13:57:29;;;;;;;0.63;0.50;;;24.50;57.00;;;;;;6243451;28;20053;-72
2021/08/02 14:00:30;;;;;;;1.15;0.60;;;24.50;57.00;;;;;;6242890;28;20122;-72
2021/08/02 14:03:31;;;;;;;0.77;0.40;;;24.50;57.00;;;;;;6243241;28;20469;-72
2021/08/02 14:06:33;;;;;;;1.00;0.60;;;24.50;57.00;;;;;;6240756;28;20308;-72
2021/08/02 14:09:36;;;;;;;0.47;0.35;;;24.50;57.00;;;;;;6242700;28;20032;-72
2021/08/02 14:12:38;;;;;;;0.50;0.28;;;24.50;57.10;;;;;;6242537;28;20049;-72
2021/08/02 14:15:49;;;;;;;0.82;0.50;;;24.50;57.00;;;;;;6238980;28;20514;-71
2021/08/02 14:18:56;;;;;;;0.50;0.40;;;24.50;57.00;;;;;;6215432;28;20034;-72
2021/08/02 14:21:59;;;;;;;1.40;0.47;;;24.50;57.00;;;;;;6237735;28;20060;-72
2021/08/02 14:25:01;;;;;;;0.50;0.45;;;24.50;57.80;;;;;;6242038;28;20037;-72
2021/08/02 14:28:05;;;;;;;0.70;0.60;;;24.50;57.10;;;;;;6242382;28;20113;-72
2021/08/02 14:31:06;;;;;;;0.30;0.30;;;24.50;57.00;;;;;;6242153;28;20018;-72
2021/08/02 14:34:07;;;;;;;0.40;0.40;;;24.50;57.00;;;;;;6242727;28;20029;-72
2021/08/02 14:37:09;;;;;;;0.60;0.50;;;24.50;57.10;;;;;;6242148;28;20396;-71
2021/08/02 14:40:12;;;;;;;1.00;0.50;;;24.50;57.10;;;;;;6241820;28;20061;-72
2021/08/02 14:43:18;;;;;;;0.63;0.50;;;24.50;57.00;;;;;;6241773;28;20126;-72
2021/08/02 14:46:20;;;;;;;0.70;0.47;;;24.50;57.00;;;;;;6242100;28;20034;-72
2021/08/02 14:49:25;;;;;;;0.75;0.68;;;24.50;57.00;;;;;;6242267;28;20024;-72
2021/08/02 14:52:25;;;;;;;;;;;24.50;57.00;;;;;;6242494;28;20531;-71
2021/08/02 14:55:26;;;;;;;1.00;0.50;;;24.50;57.00;;;;;;6241671;28;19917;-72
2021/08/02 14:58:30;;;;;;;0.50;0.50;;;24.50;57.10;;;;;;6241697;28;20108;-71
2021/08/02 15:01:32;;;;;;;0.50;0.50;;;24.50;57.00;;;;;;6241426;28;20038;-71
2021/08/02 15:04:35;;;;;;;0.60;0.55;;;24.50;57.10;;;;;;6242386;28;20140;-71
2021/08/02 15:07:36;;;;;;;1.35;0.50;;;24.50;57.10;;;;;;6240678;28;20073;-71
2021/08/02 15:10:40;;;;;;;0.50;0.50;;;24.50;57.10;;;;;;6241980;28;20017;-71
2021/08/02 15:13:40;;;;;;;1.98;0.70;;;24.50;57.10;;;;;;6234611;28;20052;-71
2021/08/02 15:17:00;;;;;;;0.50;0.40;;;24.50;57.00;;;;;;6238240;28;20029;-72
2021/08/02 15:20:02;;;;;;;0.60;0.43;;;24.50;57.00;;;;;;6245312;28;20407;-72
2021/08/02 15:23:10;;;;;;;1.85;0.47;;;24.50;57.10;;;;;;6246233;28;20025;-72
2021/08/02 15:26:13;;;;;;;0.38;0.35;;;24.50;57.00;;;;;;6247141;28;20061;-72
2021/08/02 15:29:17;;;;;;;0.88;0.57;;;24.50;57.00;;;;;;6246279;28;20032;-72
2021/08/02 15:32:19;;;;;;;0.32;0.32;;;24.50;57.00;;;;;;6245774;28;20068;-71
2021/08/02 15:35:20;;;;;;;0.73;0.47;;;24.50;57.00;;;;;;6246089;28;20028;-72
2021/08/02 15:38:21;;;;;;;0.47;0.45;;;24.50;57.00;;;;;;6246405;28;20469;-72
2021/08/02 15:41:22;;;;;;;0.43;0.43;;;24.50;57.10;;;;;;6246264;28;20037;-72
2021/08/02 15:44:28;;;;;;;0.50;0.30;;;24.50;57.00;;;;;;6245756;28;20060;-72
2021/08/02 15:47:31;;;;;;;0.50;0.50;;;24.50;57.10;;;;;;6245753;28;20033;-71
2021/08/02 15:50:33;;;;;;;0.63;0.40;;;24.50;57.10;;;;;;6246588;28;20057;-72
2021/08/02 15:53:39;;;;;;;0.68;0.60;;;24.50;57.00;;;;;;6246039;28;20112;-72
2021/08/02 15:56:42;;;;;;;0.80;0.50;;;24.50;57.10;;;;;;6246110;28;20053;-71